Time;durP1;ratioP1;P1;durP2;ratioP2;P2;SDS_P1;SDS_P2;PMS_P1;PMS_P2;Temp;Humidity;BMP_temperature;BMP_pressure;BME280_temperature;BME280_humidity;BME280_pressure;Samples;Min_cycle;Max_cycle;Signal;HPM_P1;HPM_P2
2024/03/09 00:00:52;;;;;;;9.87;8.53;;;;;;;6.52;67.54;94113.25;4973493;28;20235;-83
2024/03/09 00:03:26;;;;;;;9.63;8.13;;;;;;;6.65;67.35;94098.97;4975216;28;20331;-84
2024/03/09 00:06:06;;;;;;;9.60;8.60;;;;;;;6.73;66.87;94074.03;4976409;28;20212;-83
2024/03/09 00:08:47;;;;;;;9.83;8.00;;;;;;;6.77;66.53;94066.75;4976663;28;20210;-83
2024/03/09 00:11:30;;;;;;;10.33;8.47;;;;;;;6.61;66.78;94061.94;4977391;28;20197;-84
2024/03/09 00:14:19;;;;;;;9.27;8.00;;;;;;;6.42;67.09;94078.75;4966342;28;20216;-84
2024/03/09 00:17:14;;;;;;;;;;;;;;;;;;;;;
2024/03/09 00:19:58;;;;;;;9.70;8.17;;;;;;;6.67;66.80;94071.44;4976949;28;20208;-83
2024/03/09 00:22:31;;;;;;;8.50;7.50;;;;;;;6.77;66.42;94057.31;4973678;28;20725;-83
2024/03/09 00:25:11;;;;;;;9.13;8.23;;;;;;;6.74;66.15;94039.78;4977262;28;20192;-83
2024/03/09 00:27:49;;;;;;;10.43;8.60;;;;;;;6.68;66.16;94047.44;4976967;28;20216;-83
2024/03/09 00:30:29;;;;;;;11.77;9.60;;;;;;;6.56;66.84;94065.84;4977549;28;20206;-83
2024/03/09 00:33:06;;;;;;;17.73;12.63;;;;;;;6.42;67.32;94082.13;4959998;28;20212;-83
2024/03/09 00:35:40;;;;;;;11.93;9.13;;;;;;;6.37;67.47;94094.66;4976463;28;20235;-85
2024/03/09 00:38:17;;;;;;;13.47;8.93;;;;;;;6.42;67.33;94105.13;4955498;28;20200;-85
2024/03/09 00:41:09;;;;;;;11.53;9.27;;;;;;;6.43;67.32;94099.03;4973256;28;20204;-85
2024/03/09 00:46:45;;;;;;;11.00;8.67;;;;;;;6.61;67.21;94103.66;4971946;28;20295;-86
2024/03/09 00:49:18;;;;;;;10.93;8.10;;;;;;;6.61;67.07;94090.88;4984993;28;20226;-85
2024/03/09 00:52:11;;;;;;;11.30;8.80;;;;;;;6.64;67.30;94089.72;4981910;28;20243;-85
2024/03/09 00:54:42;;;;;;;12.77;8.33;;;;;;;6.57;67.00;94092.22;4973709;28;20227;-86
2024/03/09 00:57:41;;;;;;;8.87;7.70;;;;;;;6.48;67.65;94103.59;4972881;28;20694;-86
2024/03/09 01:00:33;;;;;;;9.63;8.27;;;;;;;6.53;67.37;94098.72;4973771;28;20208;-85
2024/03/09 01:03:09;;;;;;;10.67;8.83;;;;;;;6.35;67.32;94081.28;4972792;28;20220;-86
2024/03/09 01:05:44;;;;;;;11.60;8.50;;;;;;;6.24;67.55;94087.69;4974022;28;20211;-85
2024/03/09 01:08:24;;;;;;;10.20;8.40;;;;;;;6.14;68.01;94106.91;4979465;28;20200;-84
2024/03/09 01:10:57;;;;;;;11.30;9.43;;;;;;;6.26;68.21;94110.53;4978510;28;20200;-83
2024/03/09 01:13:53;;;;;;;16.73;12.13;;;;;;;5.99;68.42;94106.97;4981272;28;20220;-83
2024/03/09 01:16:44;;;;;;;13.43;10.77;;;;;;;5.87;69.16;94142.41;4980922;28;20247;-84
2024/03/09 01:19:18;;;;;;;11.37;9.10;;;;;;;5.77;69.55;94153.91;4962152;29;20201;-84
2024/03/09 01:21:59;;;;;;;11.33;8.90;;;;;;;5.76;69.60;94154.88;4971122;28;20659;-84
2024/03/09 01:27:37;;;;;;;10.60;8.20;;;;;;;5.86;69.53;94160.47;4968240;28;20677;-83
2024/03/09 01:30:11;;;;;;;9.23;8.03;;;;;;;5.98;68.69;94148.81;4981056;28;20208;-84
2024/03/09 01:32:50;;;;;;;9.97;8.13;;;;;;;6.08;68.69;94141.63;4981320;28;20232;-83
2024/03/09 01:35:23;;;;;;;12.33;8.33;;;;;;;6.14;68.74;94129.91;4949337;29;20388;-83
2024/03/09 01:37:50;;;;;;;11.83;8.27;;;;;;;6.21;68.30;94121.28;4970236;28;20211;-84
2024/03/09 01:40:23;;;;;;;11.00;8.20;;;;;;;6.22;67.94;94091.41;4980785;28;20294;-84
2024/03/09 01:43:01;;;;;;;9.60;8.43;;;;;;;6.18;67.75;94088.44;4979964;28;20260;-84
2024/03/09 01:45:39;;;;;;;10.27;8.10;;;;;;;6.06;67.59;94078.94;4980443;28;20293;-84
2024/03/09 01:48:11;;;;;;;9.67;8.60;;;;;;;6.03;67.69;94086.97;4981381;28;20192;-84
2024/03/09 01:50:56;;;;;;;10.37;8.70;;;;;;;5.89;68.24;94089.41;4999899;28;20756;-83
2024/03/09 01:53:31;;;;;;;11.30;8.97;;;;;;;5.80;68.41;94087.94;4966299;28;20917;-83
2024/03/09 01:56:04;;;;;;;10.17;8.93;;;;;;;5.74;68.65;94093.00;4981434;28;20219;-84
2024/03/09 01:58:44;;;;;;;10.50;8.70;;;;;;;5.76;68.74;94107.16;4981734;28;20551;-84
2024/03/09 02:01:28;;;;;;;10.43;8.50;;;;;;;5.67;68.76;94099.78;4980130;28;20783;-83
2024/03/09 02:03:59;;;;;;;9.13;8.17;;;;;;;5.73;68.93;94096.53;4977476;28;20224;-83
2024/03/09 02:09:20;;;;;;;11.70;8.30;;;;;;;5.64;69.34;94113.72;4975252;28;20238;-84
2024/03/09 02:12:05;;;;;;;10.33;8.50;;;;;;;5.69;69.12;94113.97;4976432;28;20220;-83
2024/03/09 02:20:24;;;;;;;;;;;;;;;;;;;;;
2024/03/09 02:23:14;;;;;;;9.50;8.17;;;;;;;5.97;68.46;94091.03;4973340;28;20226;-84
2024/03/09 02:25:43;;;;;;;10.77;8.33;;;;;;;5.86;68.92;94094.84;4980310;28;20287;-83
2024/03/09 02:28:27;;;;;;;14.77;11.13;;;;;;;5.74;68.57;94070.81;4967173;28;20205;-84
2024/03/09 02:30:54;;;;;;;11.03;9.57;;;;;;;5.67;68.54;94069.16;4970606;28;20212;-83
2024/03/09 02:33:28;;;;;;;10.67;8.60;;;;;;;5.68;68.39;94068.19;4973691;28;20224;-84
2024/03/09 02:35:55;;;;;;;9.73;8.20;;;;;;;5.65;68.49;94066.00;4972868;28;20224;-83
2024/03/09 02:38:29;;;;;;;9.83;8.47;;;;;;;5.58;68.17;94058.28;4975561;28;20640;-83
2024/03/09 02:41:06;;;;;;;13.57;8.83;;;;;;;5.60;68.14;94068.31;4975253;28;20215;-84
2024/03/09 02:43:49;;;;;;;12.23;8.63;;;;;;;5.57;68.46;94058.47;4974706;28;20215;-83
2024/03/09 02:46:25;;;;;;;9.47;7.93;;;;;;;5.60;68.50;94060.66;4974495;28;20200;-82
2024/03/09 02:48:58;;;;;;;10.33;8.07;;;;;;;5.58;68.07;94062.63;4982609;28;20613;-84
2024/03/09 02:51:26;;;;;;;11.27;8.17;;;;;;;5.50;68.37;94068.63;4989058;28;20207;-84
2024/03/09 02:53:56;;;;;;;10.87;8.60;;;;;;;5.51;68.61;94073.53;4973270;28;20200;-82
2024/03/09 02:56:27;;;;;;;10.50;8.33;;;;;;;5.57;68.68;94063.59;4973617;28;20224;-84
2024/03/09 02:58:56;;;;;;;8.20;7.40;;;;;;;5.47;68.54;94057.00;4973793;28;20306;-83
2024/03/09 03:01:26;;;;;;;10.13;8.17;;;;;;;5.46;68.61;94055.44;4974269;28;20197;-83
2024/03/09 03:03:58;;;;;;;8.97;8.03;;;;;;;5.47;68.52;94064.66;4974006;28;20267;-84
2024/03/09 03:06:30;;;;;;;11.43;8.43;;;;;;;5.47;68.53;94062.13;4973872;28;20204;-83
2024/03/09 03:09:18;;;;;;;11.63;8.90;;;;;;;5.33;69.14;94064.72;4973821;28;20239;-83
2024/03/09 03:12:07;;;;;;;10.13;8.17;;;;;;;5.31;69.30;94092.19;4974057;28;20224;-83
2024/03/09 03:14:50;;;;;;;11.57;8.83;;;;;;;5.26;69.48;94094.47;4973168;28;20262;-83
2024/03/09 03:17:19;;;;;;;10.97;8.47;;;;;;;5.22;69.30;94096.59;4971673;28;20259;-83
2024/03/09 03:19:57;;;;;;;10.23;8.27;;;;;;;5.26;69.18;94104.69;4968469;28;20197;-83
2024/03/09 03:22:29;;;;;;;9.53;8.00;;;;;;;5.27;69.43;94103.72;4954606;28;20228;-84
2024/03/09 03:25:02;;;;;;;12.13;8.43;;;;;;;5.26;69.84;94113.13;4971270;28;20207;-82
2024/03/09 03:27:34;;;;;;;12.23;8.27;;;;;;;5.37;69.52;94119.53;4972478;28;20212;-83
2024/03/09 03:30:01;;;;;;;12.63;8.70;;;;;;;5.41;69.59;94113.09;4956952;28;20620;-83
2024/03/09 03:32:50;;;;;;;11.77;8.67;;;;;;;5.32;70.06;94117.53;4957730;28;20236;-83
2024/03/09 03:35:28;;;;;;;11.20;8.57;;;;;;;5.40;69.77;94114.06;4958253;28;20228;-83
2024/03/09 03:38:05;;;;;;;8.60;7.37;;;;;;;5.36;70.14;94135.81;4977463;28;20204;-83
2024/03/09 03:40:34;;;;;;;9.10;8.10;;;;;;;5.36;69.86;94144.28;4976963;28;20204;-84
2024/03/09 03:43:10;;;;;;;9.97;7.93;;;;;;;5.37;69.97;94147.63;4976557;28;20303;-83
2024/03/09 03:45:50;;;;;;;9.83;8.20;;;;;;;5.45;69.76;94153.38;4976391;28;20207;-84
2024/03/09 03:48:34;;;;;;;9.67;8.10;;;;;;;5.41;69.99;94148.81;4990848;28;20192;-83
2024/03/09 03:51:02;;;;;;;9.73;8.23;;;;;;;5.50;70.22;94152.84;4982620;28;20200;-83
2024/03/09 03:53:41;;;;;;;10.10;7.80;;;;;;;5.56;70.14;94131.72;4977770;28;20220;-83
2024/03/09 03:56:32;;;;;;;9.27;7.97;;;;;;;5.62;69.84;94127.63;4977039;28;20231;-83
2024/03/09 03:59:34;;;;;;;11.47;8.83;;;;;;;5.47;69.77;94123.38;4977689;28;20224;-84
2024/03/09 04:02:14;;;;;;;11.23;8.70;;;;;;;5.10;71.46;94164.38;4976890;28;20803;-83
2024/03/09 04:04:47;;;;;;;11.00;8.87;;;;;;;5.03;72.53;94199.19;4979228;28;20293;-83
2024/03/09 04:07:42;;;;;;;11.07;8.77;;;;;;;5.18;72.32;94203.34;4979060;28;20224;-83
2024/03/09 04:10:20;;;;;;;11.23;8.93;;;;;;;5.34;71.78;94192.13;4977613;28;20255;-84
2024/03/09 04:13:11;;;;;;;10.20;8.53;;;;;;;5.46;71.62;94182.25;4976865;28;20287;-82
2024/03/09 04:16:19;;;;;;;11.43;9.13;;;;;;;5.56;71.06;94162.34;4974529;28;20315;-84
2024/03/09 04:19:12;;;;;;;10.17;8.70;;;;;;;5.64;70.46;94136.69;4978277;28;20199;-83
2024/03/09 04:21:52;;;;;;;10.37;8.87;;;;;;;5.62;70.11;94119.97;4977951;28;20215;-84
2024/03/09 04:24:28;;;;;;;9.90;8.23;;;;;;;5.64;73.31;94202.28;4978291;28;20204;-84
2024/03/09 04:26:56;;;;;;;11.73;8.83;;;;;;;5.39;71.12;94112.47;4978419;28;20728;-84
2024/03/09 04:29:34;;;;;;;12.03;9.93;;;;;;;5.35;70.71;94119.72;4977816;28;20200;-88
2024/03/09 04:34:57;;;;;;;11.43;9.17;;;;;;;5.38;70.74;94118.56;4950051;28;20216;-84
2024/03/09 04:37:34;;;;;;;11.03;9.10;;;;;;;5.43;70.81;94111.94;4973129;28;20247;-86
2024/03/09 04:43:57;;;;;;;10.57;8.80;;;;;;;5.38;70.78;94111.72;4905114;29;20228;-84
2024/03/09 04:46:32;;;;;;;13.37;10.00;;;;;;;5.34;70.69;94120.69;4922167;28;20827;-84
2024/03/09 04:52:54;;;;;;;12.20;9.93;;;;;;;5.35;70.69;94109.50;4987630;28;20668;-85
2024/03/09 04:55:44;;;;;;;11.27;9.27;;;;;;;5.43;70.48;94103.50;4959463;29;20689;-84
2024/03/09 04:58:29;;;;;;;11.77;9.50;;;;;;;5.41;70.21;94101.13;4959507;29;20208;-85
2024/03/09 05:01:01;;;;;;;10.63;9.37;;;;;;;5.31;70.18;94092.97;4959245;29;20594;-84
2024/03/09 05:03:43;;;;;;;13.10;9.57;;;;;;;5.14;70.42;94094.97;4960402;28;20232;-85
2024/03/09 05:06:44;;;;;;;12.30;9.77;;;;;;;4.96;71.49;94116.72;4951301;29;20203;-84
2024/03/09 05:12:34;;;;;;;11.23;9.93;;;;;;;5.03;70.93;94103.06;4967733;28;20310;-85
2024/03/09 05:15:04;;;;;;;11.57;9.43;;;;;;;4.98;71.34;94115.56;4978084;28;20205;-85
2024/03/09 05:17:58;;;;;;;12.17;9.93;;;;;;;5.04;70.94;94121.72;4978851;28;20733;-85
2024/03/09 05:29:55;;;;;;;13.43;10.33;;;;;;;5.16;70.67;94112.66;4942063;28;20737;-84
2024/03/09 05:32:27;;;;;;;12.30;9.53;;;;;;;5.15;70.51;94105.97;4960076;28;20225;-83
2024/03/09 05:35:46;;;;;;;12.27;9.67;;;;;;;5.10;70.44;94118.44;4958583;29;20233;-84
2024/03/09 05:38:31;;;;;;;13.23;9.87;;;;;;;4.99;70.58;94113.81;4947707;29;20212;-85
2024/03/09 05:41:26;;;;;;;12.13;9.57;;;;;;;4.89;71.35;94133.69;4951672;29;20289;-85
2024/03/09 05:44:16;;;;;;;11.43;9.03;;;;;;;4.91;71.61;94136.84;4959041;29;20211;-85
2024/03/09 05:50:03;;;;;;;13.10;9.47;;;;;;;4.96;71.59;94148.13;4920084;28;20214;-84
2024/03/09 05:55:29;;;;;;;12.17;9.43;;;;;;;5.00;71.37;94133.25;4973098;28;20199;-85
2024/03/09 05:58:40;;;;;;;12.53;9.60;;;;;;;5.05;71.31;94136.03;4995490;28;20253;-84
2024/03/09 06:01:12;;;;;;;12.67;9.77;;;;;;;5.14;71.20;94140.09;4998263;28;20207;-84
2024/03/09 06:03:53;;;;;;;11.90;9.43;;;;;;;5.20;70.49;94118.94;4995572;28;20279;-84
2024/03/09 06:06:48;;;;;;;14.20;10.43;;;;;;;5.03;70.85;94108.16;4979800;28;20223;-84
2024/03/09 06:09:42;;;;;;;11.63;9.73;;;;;;;5.05;70.90;94103.69;4979863;28;20292;-87
2024/03/09 06:12:39;;;;;;;11.63;9.17;;;;;;;5.09;71.03;94107.47;4987972;28;20232;-86
2024/03/09 06:15:34;;;;;;;12.33;9.87;;;;;;;5.15;70.40;94101.66;4995643;28;20720;-87
2024/03/09 06:18:09;;;;;;;11.93;10.00;;;;;;;5.16;70.21;94105.78;4981308;28;20321;-87
2024/03/09 06:20:42;;;;;;;10.87;9.13;;;;;;;5.18;70.48;94115.81;4995271;28;20217;-86
2024/03/09 06:23:12;;;;;;;14.90;11.00;;;;;;;5.22;70.31;94130.56;4994851;28;20637;-87
2024/03/09 06:28:38;;;;;;;13.87;9.90;;;;;;;5.20;70.91;94140.16;4992083;28;20208;-87
2024/03/09 06:31:26;;;;;;;12.50;10.20;;;;;;;5.20;71.17;94160.56;4993278;28;20210;-86
2024/03/09 06:34:26;;;;;;;14.60;10.50;;;;;;;5.33;71.05;94164.25;4991758;28;20307;-86
2024/03/09 06:36:55;;;;;;;12.93;10.40;;;;;;;5.51;70.82;94157.78;4992339;28;20219;-87
2024/03/09 06:42:25;;;;;;;14.07;11.37;;;;;;;5.82;69.59;94098.75;4996564;28;20228;-84
2024/03/09 06:45:00;;;;;;;13.73;11.57;;;;;;;6.21;69.28;94097.50;4994874;28;20211;-87
2024/03/09 06:47:39;;;;;;;14.17;10.90;;;;;;;6.44;67.53;94034.16;4992353;28;20623;-86
2024/03/09 06:50:10;;;;;;;13.23;10.87;;;;;;;6.70;67.14;94005.34;4975210;28;20582;-86
2024/03/09 06:52:57;;;;;;;13.97;11.43;;;;;;;7.01;66.11;93978.47;4973468;28;20919;-87
2024/03/09 06:55:25;;;;;;;14.87;11.47;;;;;;;7.28;65.07;93937.38;4972213;28;20827;-87
2024/03/09 06:58:17;;;;;;;14.70;11.10;;;;;;;7.51;64.21;93897.75;4972409;28;20219;-87
2024/03/09 07:00:55;;;;;;;14.57;11.43;;;;;;;7.53;63.33;93850.50;4973037;28;20636;-86
2024/03/09 07:06:13;;;;;;;14.17;11.77;;;;;;;8.06;61.91;93804.22;4969543;28;20248;-87
2024/03/09 07:08:55;;;;;;;13.27;10.97;;;;;;;8.28;61.53;93763.66;4969691;28;20263;-87
2024/03/09 07:11:33;;;;;;;13.33;11.03;;;;;;;8.57;60.85;93749.50;4969949;28;20208;-86
2024/03/09 07:17:28;;;;;;;13.57;11.33;;;;;;;9.24;59.53;93679.38;4986017;28;20308;-86
2024/03/09 07:19:56;;;;;;;14.13;12.07;;;;;;;9.42;58.95;93636.72;4991417;28;20203;-87
2024/03/09 07:22:56;;;;;;;15.43;11.90;;;;;;;9.68;57.94;93593.47;4991761;28;20724;-87
2024/03/09 07:25:41;;;;;;;13.20;11.33;;;;;;;9.76;58.00;93591.59;4991244;28;20207;-87
2024/03/09 07:28:08;;;;;;;13.57;12.07;;;;;;;9.76;57.55;93564.13;4991628;28;20261;-87
2024/03/09 07:30:50;;;;;;;12.60;11.27;;;;;;;9.76;57.88;93568.47;4992019;28;20223;-87
2024/03/09 07:36:31;;;;;;;14.27;11.57;;;;;;;9.46;58.18;93586.47;4993240;28;20230;-85
2024/03/09 07:39:15;;;;;;;14.67;12.83;;;;;;;9.13;58.85;93617.72;4994824;28;20199;-84
2024/03/09 07:45:27;;;;;;;17.23;12.07;;;;;;;9.08;59.88;93689.44;4982028;28;20199;-85
2024/03/09 07:48:00;;;;;;;15.07;12.30;;;;;;;9.43;60.10;93695.56;4958726;28;20793;-84
2024/03/09 07:50:48;;;;;;;14.70;12.20;;;;;;;9.46;59.44;93678.94;4970368;28;20204;-84
2024/03/09 07:53:31;;;;;;;13.93;12.00;;;;;;;9.59;59.25;93676.22;4976699;28;20267;-83
2024/03/09 07:56:00;;;;;;;16.53;11.90;;;;;;;9.79;58.58;93640.78;4975739;28;20853;-84
2024/03/09 07:58:41;;;;;;;16.63;12.50;;;;;;;10.26;57.65;93613.38;4977308;28;20201;-84
2024/03/09 08:01:26;;;;;;;16.63;12.17;;;;;;;10.66;56.78;93584.41;4975244;28;20291;-83
2024/03/09 08:04:43;;;;;;;13.50;12.10;;;;;;;11.16;55.28;93501.44;4976060;28;20662;-84
2024/03/09 08:07:26;;;;;;;12.77;10.87;;;;;;;11.56;54.11;93429.94;4940046;28;20235;-84
2024/03/09 08:13:22;;;;;;;11.73;10.53;;;;;;;12.36;52.21;93321.16;4979632;28;20571;-85
2024/03/09 08:16:05;;;;;;;12.93;10.80;;;;;;;12.27;51.80;93273.59;4979065;28;20292;-83
2024/03/09 08:21:40;;;;;;;12.83;10.33;;;;;;;12.98;51.36;93288.91;4977262;28;20206;-85
2024/03/09 08:33:41;;;;;;;12.33;11.07;;;;;;;13.90;48.68;93122.88;4927955;28;20274;-84
2024/03/09 08:36:12;;;;;;;10.53;9.43;;;;;;;14.10;47.91;93080.72;4971223;28;20571;-84
2024/03/09 08:39:04;;;;;;;10.23;9.20;;;;;;;14.41;47.65;93086.72;4971106;28;20215;-84
2024/03/09 08:41:46;;;;;;;10.20;9.17;;;;;;;14.71;47.28;93058.16;4971629;28;20551;-84
2024/03/09 08:44:26;;;;;;;14.43;9.20;;;;;;;14.90;47.24;93055.78;4971519;28;20563;-84
2024/03/09 08:47:11;;;;;;;;;;;;;;;;;;;;;
2024/03/09 08:49:44;;;;;;;11.85;9.43;;;;;;;15.35;45.99;93005.53;4981711;28;20211;-84
2024/03/09 08:52:31;;;;;;;10.55;9.45;;;;;;;15.58;44.91;92933.34;4989556;28;20715;-84
2024/03/09 08:54:58;;;;;;;10.15;9.07;;;;;;;15.53;43.98;92874.47;4971107;28;20200;-84
2024/03/09 08:57:29;;;;;;;9.55;8.55;;;;;;;15.71;44.50;92902.34;4971256;28;20303;-84
2024/03/09 09:03:22;;;;;;;11.15;9.52;;;;;;;16.07;44.38;92910.56;4971099;28;20245;-83
2024/03/09 09:05:51;;;;;;;10.23;9.20;;;;;;;16.07;44.55;92900.16;4971452;28;20208;-83
2024/03/09 09:08:36;;;;;;;10.27;9.23;;;;;;;16.27;44.29;92925.13;4972032;28;20414;-83
2024/03/09 09:11:23;;;;;;;11.52;9.77;;;;;;;16.56;44.17;92888.69;4975503;28;20196;-83
2024/03/09 09:13:49;;;;;;;11.93;9.90;;;;;;;16.73;44.14;92889.03;5001006;23;20270;-83
2024/03/09 09:16:29;;;;;;;12.93;9.82;;;;;;;16.84;43.55;92881.88;4980979;28;20243;-84
2024/03/09 09:19:08;;;;;;;10.57;9.48;;;;;;;16.95;43.52;92869.50;4992260;28;20242;-83
2024/03/09 09:21:39;;;;;;;9.88;8.80;;;;;;;17.13;43.32;92853.88;4993000;28;20743;-83
2024/03/09 09:24:27;;;;;;;10.75;8.93;;;;;;;17.22;42.55;92796.81;4993636;28;20253;-84
2024/03/09 09:27:08;;;;;;;8.75;7.85;;;;;;;16.60;41.25;92692.28;4993263;28;20203;-84
2024/03/09 09:32:35;;;;;;;15.05;13.52;;;;;;;16.21;43.07;92786.06;4983674;28;20228;-84
2024/03/09 09:35:41;;;;;;;9.25;8.35;;;;;;;16.51;42.25;92777.09;4994839;28;20207;-84
2024/03/09 09:38:37;;;;;;;8.30;7.50;;;;;;;16.86;41.74;92737.63;4997554;28;20230;-84
2024/03/09 09:41:29;;;;;;;9.25;8.32;;;;;;;17.05;40.70;92677.78;4997402;28;20204;-83
2024/03/09 09:46:57;;;;;;;9.18;8.00;;;;;;;16.89;39.37;92588.16;4994898;28;20271;-84
2024/03/09 09:49:34;;;;;;;7.40;6.70;;;;;;;16.61;39.71;92574.34;5000008;28;20196;-84
2024/03/09 09:52:38;;;;;;;;;;;;;;;;;;;;;
2024/03/09 09:55:35;;;;;;;8.70;6.53;;;;;;;15.77;41.55;92685.97;4994992;28;20207;-83
2024/03/09 09:58:04;;;;;;;7.35;6.65;;;;;;;16.09;41.58;92703.44;4989141;28;20645;-84
2024/03/09 10:01:09;;;;;;;;;;;;;;;;;;;;;
2024/03/09 10:03:47;;;;;;;6.65;6.03;;;;;;;16.29;41.15;92681.59;4997325;28;20234;-83
2024/03/09 10:09:37;;;;;;;6.25;5.63;;;;;;;16.89;40.58;92661.69;4994817;28;20211;-84
2024/03/09 10:12:21;;;;;;;5.32;4.82;;;;;;;17.06;39.22;92575.34;4998080;28;20231;-84
2024/03/09 10:15:13;;;;;;;5.32;4.80;;;;;;;16.89;39.47;92606.34;4994275;28;20235;-84
2024/03/09 10:17:42;;;;;;;4.07;3.78;;;;;;;16.45;38.50;92508.94;4996030;28;20990;-83
2024/03/09 10:20:27;;;;;;;4.20;3.80;;;;;;;16.35;38.71;92490.94;4999094;28;20214;-83
2024/03/09 10:22:57;;;;;;;5.00;4.30;;;;;;;16.34;38.69;92504.22;4997401;28;20226;-84
2024/03/09 10:25:30;;;;;;;4.43;4.03;;;;;;;16.54;39.75;92602.53;4996182;28;20301;-84
2024/03/09 10:28:02;;;;;;;4.57;4.18;;;;;;;16.56;39.34;92562.22;4995469;28;20195;-84
2024/03/09 10:30:41;;;;;;;4.30;3.90;;;;;;;16.66;38.86;92539.75;4996945;28;20717;-84
2024/03/09 10:33:34;;;;;;;3.90;3.60;;;;;;;16.68;38.83;92537.63;4995566;28;20223;-84
2024/03/09 10:36:07;;;;;;;3.10;2.90;;;;;;;16.41;37.56;92439.69;4995910;28;20199;-84
2024/03/09 10:38:46;;;;;;;9.52;6.75;;;;;;;16.19;38.69;92487.84;4995491;28;20323;-84
2024/03/09 10:44:30;;;;;;;4.57;3.67;;;;;;;16.36;39.39;92567.75;4922462;28;20202;-84
2024/03/09 10:47:08;;;;;;;3.80;3.50;;;;;;;16.66;38.76;92550.13;4996506;28;20198;-84
2024/03/09 10:49:47;;;;;;;4.25;3.25;;;;;;;16.36;38.32;92478.72;4998228;28;20282;-85
2024/03/09 10:52:31;;;;;;;4.65;3.63;;;;;;;16.29;38.82;92509.50;4997584;28;20246;-84
2024/03/09 10:55:17;;;;;;;5.45;3.90;;;;;;;16.29;39.79;92584.78;4998116;28;20207;-83
2024/03/09 10:58:20;;;;;;;4.95;4.45;;;;;;;16.68;40.24;92639.72;4998492;28;20239;-84
2024/03/09 11:01:10;;;;;;;8.27;4.13;;;;;;;17.13;39.97;92639.94;4988617;28;20294;-84
2024/03/09 11:03:45;;;;;;;6.47;5.47;;;;;;;17.31;39.30;92563.69;4997516;28;20857;-85
2024/03/09 11:06:24;;;;;;;5.70;4.80;;;;;;;17.10;38.80;92520.97;4998573;28;20195;-84
2024/03/09 11:09:06;;;;;;;4.15;3.67;;;;;;;17.07;38.68;92521.53;4998748;28;20195;-84
2024/03/09 11:11:52;;;;;;;5.13;3.90;;;;;;;16.86;39.02;92536.78;5000667;28;20278;-85
2024/03/09 11:14:39;;;;;;;3.90;3.55;;;;;;;16.80;38.98;92535.31;5000342;28;20215;-85
2024/03/09 11:17:27;;;;;;;8.68;4.80;;;;;;;17.04;39.14;92567.06;5000418;28;20541;-84
2024/03/09 11:19:59;;;;;;;11.52;4.32;;;;;;;17.33;39.79;92604.97;5000395;28;20272;-84
2024/03/09 11:22:50;;;;;;;4.53;4.13;;;;;;;17.30;38.83;92532.78;4999624;28;20219;-83
2024/03/09 11:26:03;;;;;;;3.38;3.08;;;;;;;16.96;38.90;92505.38;4999504;28;20254;-85
2024/03/09 11:29:05;;;;;;;4.43;3.63;;;;;;;16.76;39.42;92529.16;4999866;28;20459;-84
2024/03/09 11:31:50;;;;;;;3.40;3.10;;;;;;;16.70;40.05;92580.47;4999514;28;20294;-84
2024/03/09 11:37:10;;;;;;;6.47;5.25;;;;;;;16.72;39.60;92567.94;4998838;28;20735;-84
2024/03/09 11:39:49;;;;;;;3.90;3.50;;;;;;;16.67;39.77;92562.84;4998327;28;20214;-84
2024/03/09 11:51:56;;;;;;;4.80;3.45;;;;;;;16.98;40.75;92624.63;4937204;29;20202;-84
2024/03/09 11:54:57;;;;;;;3.40;3.10;;;;;;;16.92;40.41;92622.16;4944529;28;20253;-84
2024/03/09 11:57:38;;;;;;;6.75;3.28;;;;;;;17.35;40.89;92660.06;4998366;28;20955;-84
2024/03/09 12:00:14;;;;;;;3.78;2.90;;;;;;;17.67;40.55;92620.97;4997794;28;20693;-84
2024/03/09 12:03:02;;;;;;;5.35;3.10;;;;;;;17.65;39.21;92549.47;4997523;28;20219;-84
2024/03/09 12:05:43;;;;;;;5.47;4.97;;;;;;;17.57;39.77;92554.28;4998154;28;20212;-84
2024/03/09 12:08:09;;;;;;;6.18;4.85;;;;;;;17.48;38.75;92482.44;4997438;28;20735;-84
2024/03/09 12:10:42;;;;;;;3.58;2.90;;;;;;;17.49;38.70;92489.19;4996838;28;20203;-84
2024/03/09 12:13:27;;;;;;;4.82;2.95;;;;;;;17.47;39.12;92501.72;4996783;28;20246;-84
2024/03/09 12:16:16;;;;;;;;;;;;;;;;;;;;;
2024/03/09 12:19:06;;;;;;;8.77;7.95;;;;;;;17.96;39.49;92545.09;4997596;28;20303;-84
2024/03/09 12:21:43;;;;;;;2.55;2.35;;;;;;;18.23;38.27;92456.44;4997527;28;20203;-84
2024/03/09 12:24:23;;;;;;;3.00;2.20;;;;;;;18.28;37.09;92364.38;4997439;28;20207;-84
2024/03/09 12:27:08;;;;;;;2.60;2.40;;;;;;;18.53;37.84;92422.81;4997588;28;20246;-84
2024/03/09 12:29:49;;;;;;;2.95;2.75;;;;;;;18.27;38.57;92454.00;4994945;28;20211;-84
2024/03/09 12:32:24;;;;;;;3.08;2.80;;;;;;;18.26;38.27;92442.81;4996688;28;20223;-84
2024/03/09 12:35:13;;;;;;;3.03;2.80;;;;;;;18.25;38.51;92448.34;4994392;28;20239;-84
2024/03/09 12:37:56;;;;;;;2.58;2.38;;;;;;;18.21;38.39;92439.56;4996560;28;20227;-84
2024/03/09 12:40:25;;;;;;;2.63;2.42;;;;;;;17.82;38.68;92440.31;4990233;28;20689;-84
2024/03/09 12:43:09;;;;;;;4.50;2.28;;;;;;;17.94;39.10;92482.16;4995611;28;20259;-85
2024/03/09 12:45:44;;;;;;;3.45;2.17;;;;;;;18.06;38.70;92458.97;4995918;28;20202;-84
2024/03/09 12:48:27;;;;;;;;;;;;;;;;;;;;;
2024/03/09 12:50:56;;;;;;;2.85;2.55;;;;;;;18.06;38.09;92432.94;5010723;28;20305;-85
2024/03/09 12:53:34;;;;;;;3.25;2.53;;;;;;;17.99;38.08;92401.34;5014568;28;20699;-84
2024/03/09 12:56:06;;;;;;;3.33;1.85;;;;;;;18.12;38.24;92423.91;5015710;28;20203;-85
2024/03/09 12:58:34;;;;;;;2.30;2.10;;;;;;;18.38;38.33;92405.78;5015242;28;20223;-83
2024/03/09 13:01:12;;;;;;;4.72;2.50;;;;;;;18.39;37.41;92376.06;5015991;28;20577;-85
2024/03/09 13:03:47;;;;;;;1.92;1.83;;;;;;;18.59;37.47;92372.16;5017450;28;20258;-84
2024/03/09 13:06:25;;;;;;;1.90;1.70;;;;;;;18.77;37.22;92363.28;5019443;28;20699;-85
2024/03/09 13:09:05;;;;;;;2.50;2.30;;;;;;;18.60;36.94;92314.53;5015845;28;20199;-84
2024/03/09 13:11:48;;;;;;;2.45;2.22;;;;;;;18.57;37.85;92371.66;5019330;28;20202;-84
2024/03/09 13:14:24;;;;;;;2.45;2.25;;;;;;;18.76;38.49;92433.94;5019119;28;20258;-84
2024/03/09 13:20:12;;;;;;;2.50;2.30;;;;;;;18.98;37.20;92356.41;5018420;28;20191;-84
2024/03/09 13:22:43;;;;;;;4.70;2.40;;;;;;;18.68;36.21;92284.31;5017940;28;20237;-83
2024/03/09 13:25:31;;;;;;;2.47;1.95;;;;;;;18.86;36.90;92326.78;5018283;28;20203;-84
2024/03/09 13:27:57;;;;;;;1.80;1.70;;;;;;;19.03;36.89;92316.38;5018687;28;20253;-85
2024/03/09 13:30:26;;;;;;;1.88;1.70;;;;;;;19.12;36.60;92301.47;5019292;28;20645;-84
2024/03/09 13:32:55;;;;;;;1.65;1.55;;;;;;;19.18;36.87;92292.41;5017355;28;20354;-84
2024/03/09 13:35:22;;;;;;;2.55;2.00;;;;;;;19.21;36.36;92273.53;4999577;28;20199;-85
2024/03/09 13:37:50;;;;;;;2.25;1.90;;;;;;;18.97;35.98;92237.53;4998576;28;20247;-84
2024/03/09 13:40:25;;;;;;;2.00;1.80;;;;;;;18.91;36.06;92254.41;4997274;28;20222;-84
2024/03/09 13:42:55;;;;;;;2.05;1.73;;;;;;;18.81;35.58;92231.28;4997111;28;20280;-84
2024/03/09 13:45:27;;;;;;;1.60;1.50;;;;;;;18.84;34.84;92188.97;4998119;28;20333;-85
2024/03/09 13:48:06;;;;;;;2.53;1.50;;;;;;;18.71;34.58;92137.78;4997090;28;20337;-84
2024/03/09 13:50:37;;;;;;;1.85;1.60;;;;;;;18.90;35.34;92203.34;4998676;28;20261;-85
2024/03/09 13:53:06;;;;;;;1.50;1.40;;;;;;;19.13;36.02;92244.88;4997591;28;20355;-84
2024/03/09 13:55:35;;;;;;;1.70;1.60;;;;;;;19.09;35.39;92195.19;4997235;28;20204;-84
2024/03/09 13:58:02;;;;;;;3.85;1.95;;;;;;;18.74;35.59;92193.72;4996819;28;20775;-84
2024/03/09 14:00:29;;;;;;;1.70;1.60;;;;;;;18.84;36.34;92263.78;4997573;28;20207;-84
2024/03/09 14:02:56;;;;;;;1.83;1.70;;;;;;;19.00;36.68;92292.75;4997671;28;20235;-84
2024/03/09 14:05:24;;;;;;;2.08;1.88;;;;;;;19.08;36.55;92291.97;4998023;28;20203;-84
2024/03/09 14:07:56;;;;;;;1.88;1.77;;;;;;;19.05;36.52;92274.34;4997806;28;20203;-84
2024/03/09 14:10:23;;;;;;;1.73;1.63;;;;;;;18.89;36.08;92247.97;4998074;28;20208;-84
2024/03/09 14:12:53;;;;;;;3.00;1.98;;;;;;;18.48;37.05;92275.25;4995230;28;20228;-84
2024/03/09 14:15:22;;;;;;;1.98;1.88;;;;;;;18.25;37.34;92287.66;4995950;28;20760;-84
2024/03/09 14:17:49;;;;;;;1.60;1.50;;;;;;;18.39;37.22;92305.75;4996740;28;20262;-84
2024/03/09 14:20:18;;;;;;;2.08;1.98;;;;;;;18.56;36.92;92302.38;4998145;28;20207;-84
2024/03/09 14:22:45;;;;;;;2.00;1.83;;;;;;;18.37;36.83;92271.41;4998183;28;20744;-84
2024/03/09 14:25:17;;;;;;;2.85;1.80;;;;;;;18.32;36.97;92295.00;4998206;28;20195;-83
2024/03/09 14:27:47;;;;;;;2.42;2.22;;;;;;;18.02;37.41;92314.84;4997201;28;20588;-84